Attapulgus, Georgia
Current Conditions -  °F | °C
As of 4:15 PM on Monday 24 Nov 2014 (Local Time) from K2J9 Reporting Station
Overcast Overcast  
Wind Chill: 68°   Ceiling: 9500
Heat Index: 68°   Visibility: 7mi
Dew Point: 66°   Wind: 5mph
Humidity: 94%   Direction: 160°SSE
Pressure: 29.87"   Gusts: NA
Location:  30.75°N, 84.48°W
Report Text: K2J9 242115Z AUTO 16004KT 7SM OVC095 20/19 A2987 RMK AO1
Loading
Personal Weather Stations






























Interactive Weather Map New forecast layout! Learn more

10-Day Weather Forecast

Advertisements
Track Severe Weather on mobile